Terminal Aerodrome Forecast
Issued by NWS Charleston, WV

Home | Current Version | Previous Version | Text Only | Print | Product List | Glossary On
Versions: 1 2 3 4 5 6 7 8 9 10 11 12 13 14 15 16 17 18 19 20 21 22 23 24 25 26
000
FTUS41 KRLX 272100 AAB
TAFEKN
TAF AMD
KEKN 272100Z 2721/2818 27008G15KT 2SM -SHSN BKN020 OVC030
      TEMPO 2721/2801 3/4SM -SHSN BR BKN012 OVC020
     FM280100 29008KT 3SM -SHSN BR OVC017
     FM280900 29006KT 4SM -SHSN OVC025
     FM281300 29006KT P6SM OVC025
     FM281400 28006KT P6SM BKN100=

USA.gov is the U.S. government's official web portal to all federal, state and local government web resources and services.